sensor_id;sensor_type;location;lat;lon;timestamp;P1;durP1;ratioP1;P2;durP2;ratioP2
59587;SDS011;45412;54.472;18.464;2022-09-13T00:01:59;9.70;;;4.10;;
59587;SDS011;45412;54.472;18.464;2022-09-13T00:04:48;9.60;;;4.60;;
59587;SDS011;45412;54.472;18.464;2022-09-13T00:07:36;12.00;;;5.70;;
59587;SDS011;45412;54.472;18.464;2022-09-13T00:10:24;12.20;;;5.70;;
59587;SDS011;45412;54.472;18.464;2022-09-13T00:13:14;13.70;;;5.70;;
59587;SDS011;45412;54.472;18.464;2022-09-13T00:16:14;10.90;;;5.40;;
59587;SDS011;45412;54.472;18.464;2022-09-13T00:19:05;12.00;;;6.30;;
59587;SDS011;45412;54.472;18.464;2022-09-13T00:21:53;11.60;;;5.60;;
59587;SDS011;45412;54.472;18.464;2022-09-13T00:24:41;14.30;;;6.30;;
59587;SDS011;45412;54.472;18.464;2022-09-13T00:27:29;12.30;;;6.20;;
59587;SDS011;45412;54.472;18.464;2022-09-13T00:30:19;14.10;;;7.40;;
59587;SDS011;45412;54.472;18.464;2022-09-13T00:33:07;14.50;;;7.40;;
59587;SDS011;45412;54.472;18.464;2022-09-13T00:35:55;14.10;;;7.60;;
59587;SDS011;45412;54.472;18.464;2022-09-13T00:38:43;12.60;;;7.10;;
59587;SDS011;45412;54.472;18.464;2022-09-13T00:41:31;12.30;;;7.10;;
59587;SDS011;45412;54.472;18.464;2022-09-13T00:45:22;12.90;;;7.40;;
59587;SDS011;45412;54.472;18.464;2022-09-13T00:48:04;14.30;;;7.20;;
59587;SDS011;45412;54.472;18.464;2022-09-13T00:50:54;14.20;;;8.90;;
59587;SDS011;45412;54.472;18.464;2022-09-13T00:53:45;14.00;;;7.70;;
59587;SDS011;45412;54.472;18.464;2022-09-13T00:56:41;14.00;;;8.00;;
59587;SDS011;45412;54.472;18.464;2022-09-13T00:59:46;13.20;;;8.00;;
59587;SDS011;45412;54.472;18.464;2022-09-13T01:03:03;14.70;;;7.40;;
59587;SDS011;45412;54.472;18.464;2022-09-13T01:06:14;13.20;;;7.40;;
59587;SDS011;45412;54.472;18.464;2022-09-13T01:09:06;13.20;;;7.00;;
59587;SDS011;45412;54.472;18.464;2022-09-13T01:12:00;13.30;;;7.00;;
59587;SDS011;45412;54.472;18.464;2022-09-13T01:14:54;12.00;;;6.70;;
59587;SDS011;45412;54.472;18.464;2022-09-13T01:17:46;11.70;;;6.60;;
59587;SDS011;45412;54.472;18.464;2022-09-13T01:42:17;13.60;;;7.10;;
59587;SDS011;45412;54.472;18.464;2022-09-13T01:45:46;13.20;;;6.90;;
59587;SDS011;45412;54.472;18.464;2022-09-13T01:55:57;16.10;;;8.30;;
59587;SDS011;45412;54.472;18.464;2022-09-13T01:58:22;16.00;;;8.00;;
59587;SDS011;45412;54.472;18.464;2022-09-13T02:01:19;14.00;;;7.30;;
59587;SDS011;45412;54.472;18.464;2022-09-13T02:04:40;13.80;;;8.00;;
59587;SDS011;45412;54.472;18.464;2022-09-13T02:07:44;12.60;;;6.20;;
59587;SDS011;45412;54.472;18.464;2022-09-13T02:10:45;14.50;;;7.20;;
59587;SDS011;45412;54.472;18.464;2022-09-13T02:13:39;11.10;;;6.10;;
59587;SDS011;45412;54.472;18.464;2022-09-13T02:16:58;10.20;;;5.90;;
59587;SDS011;45412;54.472;18.464;2022-09-13T02:23:02;11.90;;;6.00;;
59587;SDS011;45412;54.472;18.464;2022-09-13T02:25:55;11.50;;;6.10;;
59587;SDS011;45412;54.472;18.464;2022-09-13T02:28:52;10.40;;;5.60;;
59587;SDS011;45412;54.472;18.464;2022-09-13T02:32:08;15.10;;;5.90;;
59587;SDS011;45412;54.472;18.464;2022-09-13T02:35:12;11.40;;;6.00;;
59587;SDS011;45412;54.472;18.464;2022-09-13T02:38:26;11.90;;;6.30;;
59587;SDS011;45412;54.472;18.464;2022-09-13T02:41:51;12.70;;;6.80;;
59587;SDS011;45412;54.472;18.464;2022-09-13T02:44:50;13.60;;;6.60;;
59587;SDS011;45412;54.472;18.464;2022-09-13T02:47:53;12.90;;;7.20;;
59587;SDS011;45412;54.472;18.464;2022-09-13T02:50:54;14.50;;;7.40;;
59587;SDS011;45412;54.472;18.464;2022-09-13T02:59:47;12.30;;;6.30;;
59587;SDS011;45412;54.472;18.464;2022-09-13T03:02:36;13.50;;;6.50;;
59587;SDS011;45412;54.472;18.464;2022-09-13T03:05:27;13.70;;;6.80;;
59587;SDS011;45412;54.472;18.464;2022-09-13T03:08:14;14.40;;;6.50;;
59587;SDS011;45412;54.472;18.464;2022-09-13T03:14:30;13.40;;;6.20;;
59587;SDS011;45412;54.472;18.464;2022-09-13T03:20:28;12.30;;;5.80;;
59587;SDS011;45412;54.472;18.464;2022-09-13T03:29:58;12.00;;;6.60;;
59587;SDS011;45412;54.472;18.464;2022-09-13T03:36:32;11.00;;;5.80;;
59587;SDS011;45412;54.472;18.464;2022-09-13T03:39:33;10.90;;;6.00;;
59587;SDS011;45412;54.472;18.464;2022-09-13T03:42:43;10.80;;;5.40;;
59587;SDS011;45412;54.472;18.464;2022-09-13T03:45:44;9.40;;;4.90;;
59587;SDS011;45412;54.472;18.464;2022-09-13T03:48:37;10.10;;;4.80;;
59587;SDS011;45412;54.472;18.464;2022-09-13T03:51:28;10.90;;;5.40;;
59587;SDS011;45412;54.472;18.464;2022-09-13T03:54:22;8.40;;;4.70;;
59587;SDS011;45412;54.472;18.464;2022-09-13T03:57:19;10.50;;;5.20;;
59587;SDS011;45412;54.472;18.464;2022-09-13T04:00:08;10.80;;;5.80;;
59587;SDS011;45412;54.472;18.464;2022-09-13T04:02:59;12.50;;;5.50;;
59587;SDS011;45412;54.472;18.464;2022-09-13T04:05:47;10.90;;;5.10;;
59587;SDS011;45412;54.472;18.464;2022-09-13T04:08:35;9.70;;;5.20;;
59587;SDS011;45412;54.472;18.464;2022-09-13T04:11:23;10.20;;;5.10;;
59587;SDS011;45412;54.472;18.464;2022-09-13T04:14:11;12.30;;;5.10;;
59587;SDS011;45412;54.472;18.464;2022-09-13T04:17:00;10.30;;;5.50;;
59587;SDS011;45412;54.472;18.464;2022-09-13T04:19:47;12.40;;;5.20;;
59587;SDS011;45412;54.472;18.464;2022-09-13T04:22:35;9.50;;;4.90;;
59587;SDS011;45412;54.472;18.464;2022-09-13T04:25:24;10.70;;;6.10;;
59587;SDS011;45412;54.472;18.464;2022-09-13T04:28:12;11.40;;;5.40;;
59587;SDS011;45412;54.472;18.464;2022-09-13T04:31:00;10.80;;;5.20;;
59587;SDS011;45412;54.472;18.464;2022-09-13T04:33:48;13.50;;;6.60;;
59587;SDS011;45412;54.472;18.464;2022-09-13T04:36:36;10.90;;;5.80;;
59587;SDS011;45412;54.472;18.464;2022-09-13T04:39:29;11.70;;;5.80;;
59587;SDS011;45412;54.472;18.464;2022-09-13T04:42:18;14.00;;;6.30;;
59587;SDS011;45412;54.472;18.464;2022-09-13T04:45:06;13.70;;;6.10;;
59587;SDS011;45412;54.472;18.464;2022-09-13T04:47:55;12.70;;;5.60;;
59587;SDS011;45412;54.472;18.464;2022-09-13T04:50:43;10.20;;;6.20;;
59587;SDS011;45412;54.472;18.464;2022-09-13T04:53:31;9.90;;;5.30;;
59587;SDS011;45412;54.472;18.464;2022-09-13T04:56:20;10.40;;;5.20;;
59587;SDS011;45412;54.472;18.464;2022-09-13T04:59:10;12.50;;;6.10;;
59587;SDS011;45412;54.472;18.464;2022-09-13T05:01:58;11.10;;;5.60;;
59587;SDS011;45412;54.472;18.464;2022-09-13T05:04:46;11.00;;;4.90;;
59587;SDS011;45412;54.472;18.464;2022-09-13T05:07:34;11.60;;;5.00;;
59587;SDS011;45412;54.472;18.464;2022-09-13T05:10:22;13.40;;;5.10;;
59587;SDS011;45412;54.472;18.464;2022-09-13T05:13:10;12.40;;;5.00;;
59587;SDS011;45412;54.472;18.464;2022-09-13T05:16:01;9.10;;;4.90;;
59587;SDS011;45412;54.472;18.464;2022-09-13T05:18:51;12.00;;;4.90;;
59587;SDS011;45412;54.472;18.464;2022-09-13T05:21:42;13.70;;;4.80;;
59587;SDS011;45412;54.472;18.464;2022-09-13T05:24:29;14.60;;;4.60;;
59587;SDS011;45412;54.472;18.464;2022-09-13T05:27:17;8.20;;;3.90;;
59587;SDS011;45412;54.472;18.464;2022-09-13T05:30:06;10.80;;;4.90;;
59587;SDS011;45412;54.472;18.464;2022-09-13T05:32:54;10.00;;;4.40;;
59587;SDS011;45412;54.472;18.464;2022-09-13T05:35:44;10.60;;;4.60;;
59587;SDS011;45412;54.472;18.464;2022-09-13T05:38:32;9.00;;;4.00;;
59587;SDS011;45412;54.472;18.464;2022-09-13T05:41:20;11.00;;;4.30;;
59587;SDS011;45412;54.472;18.464;2022-09-13T05:44:09;9.00;;;4.00;;
59587;SDS011;45412;54.472;18.464;2022-09-13T05:47:00;8.30;;;3.80;;
59587;SDS011;45412;54.472;18.464;2022-09-13T05:49:48;8.90;;;4.10;;
59587;SDS011;45412;54.472;18.464;2022-09-13T05:52:56;10.30;;;3.90;;
59587;SDS011;45412;54.472;18.464;2022-09-13T05:55:44;10.70;;;3.30;;
59587;SDS011;45412;54.472;18.464;2022-09-13T05:58:33;8.20;;;3.10;;
59587;SDS011;45412;54.472;18.464;2022-09-13T06:01:26;7.80;;;3.20;;
59587;SDS011;45412;54.472;18.464;2022-09-13T06:04:15;9.50;;;3.10;;
59587;SDS011;45412;54.472;18.464;2022-09-13T06:07:03;10.20;;;3.50;;
59587;SDS011;45412;54.472;18.464;2022-09-13T06:09:51;8.90;;;3.00;;
59587;SDS011;45412;54.472;18.464;2022-09-13T06:12:39;8.90;;;3.30;;
59587;SDS011;45412;54.472;18.464;2022-09-13T06:15:27;8.10;;;2.70;;
59587;SDS011;45412;54.472;18.464;2022-09-13T06:18:18;7.30;;;2.50;;
59587;SDS011;45412;54.472;18.464;2022-09-13T06:21:08;14.10;;;3.00;;
59587;SDS011;45412;54.472;18.464;2022-09-13T06:24:04;12.30;;;2.40;;
59587;SDS011;45412;54.472;18.464;2022-09-13T06:26:52;9.70;;;2.50;;
59587;SDS011;45412;54.472;18.464;2022-09-13T06:29:40;7.90;;;2.50;;
59587;SDS011;45412;54.472;18.464;2022-09-13T06:32:28;8.20;;;2.60;;
59587;SDS011;45412;54.472;18.464;2022-09-13T06:35:16;8.40;;;2.50;;
59587;SDS011;45412;54.472;18.464;2022-09-13T06:38:04;8.40;;;2.50;;
59587;SDS011;45412;54.472;18.464;2022-09-13T06:41:09;6.90;;;2.50;;
59587;SDS011;45412;54.472;18.464;2022-09-13T06:43:59;10.30;;;2.50;;
59587;SDS011;45412;54.472;18.464;2022-09-13T06:46:47;10.40;;;2.00;;
59587;SDS011;45412;54.472;18.464;2022-09-13T06:49:35;8.60;;;2.90;;
59587;SDS011;45412;54.472;18.464;2022-09-13T06:52:23;8.50;;;2.40;;
59587;SDS011;45412;54.472;18.464;2022-09-13T06:55:11;7.20;;;2.40;;
59587;SDS011;45412;54.472;18.464;2022-09-13T06:57:59;8.00;;;2.50;;
59587;SDS011;45412;54.472;18.464;2022-09-13T07:00:47;7.30;;;2.40;;
59587;SDS011;45412;54.472;18.464;2022-09-13T07:03:44;8.20;;;2.90;;
59587;SDS011;45412;54.472;18.464;2022-09-13T07:06:39;10.30;;;2.60;;
59587;SDS011;45412;54.472;18.464;2022-09-13T07:09:29;11.90;;;2.90;;
59587;SDS011;45412;54.472;18.464;2022-09-13T07:12:17;7.50;;;2.70;;
59587;SDS011;45412;54.472;18.464;2022-09-13T07:15:07;8.00;;;2.50;;
59587;SDS011;45412;54.472;18.464;2022-09-13T07:17:55;14.10;;;3.30;;
59587;SDS011;45412;54.472;18.464;2022-09-13T07:20:44;8.50;;;2.70;;
59587;SDS011;45412;54.472;18.464;2022-09-13T07:23:32;10.00;;;2.60;;
59587;SDS011;45412;54.472;18.464;2022-09-13T07:26:22;7.80;;;2.90;;
59587;SDS011;45412;54.472;18.464;2022-09-13T07:29:16;10.50;;;2.80;;
59587;SDS011;45412;54.472;18.464;2022-09-13T07:32:09;9.90;;;3.40;;
59587;SDS011;45412;54.472;18.464;2022-09-13T07:34:56;8.00;;;3.10;;
59587;SDS011;45412;54.472;18.464;2022-09-13T07:37:44;8.90;;;2.80;;
59587;SDS011;45412;54.472;18.464;2022-09-13T07:40:33;8.70;;;3.40;;
59587;SDS011;45412;54.472;18.464;2022-09-13T07:43:24;10.30;;;3.20;;
59587;SDS011;45412;54.472;18.464;2022-09-13T07:46:23;10.90;;;3.20;;
59587;SDS011;45412;54.472;18.464;2022-09-13T07:49:16;8.70;;;3.00;;
59587;SDS011;45412;54.472;18.464;2022-09-13T07:52:05;8.30;;;2.80;;
59587;SDS011;45412;54.472;18.464;2022-09-13T07:54:53;9.40;;;3.70;;
59587;SDS011;45412;54.472;18.464;2022-09-13T07:57:41;11.50;;;3.80;;
59587;SDS011;45412;54.472;18.464;2022-09-13T08:00:29;10.30;;;3.30;;
59587;SDS011;45412;54.472;18.464;2022-09-13T08:03:17;10.00;;;3.40;;
59587;SDS011;45412;54.472;18.464;2022-09-13T08:06:06;11.10;;;3.30;;
59587;SDS011;45412;54.472;18.464;2022-09-13T08:08:55;8.50;;;3.40;;
59587;SDS011;45412;54.472;18.464;2022-09-13T08:11:46;8.30;;;3.20;;
59587;SDS011;45412;54.472;18.464;2022-09-13T08:14:35;9.90;;;3.80;;
59587;SDS011;45412;54.472;18.464;2022-09-13T08:17:25;8.80;;;3.50;;
59587;SDS011;45412;54.472;18.464;2022-09-13T08:20:13;9.50;;;3.70;;
59587;SDS011;45412;54.472;18.464;2022-09-13T08:23:01;10.10;;;4.00;;
59587;SDS011;45412;54.472;18.464;2022-09-13T08:25:49;9.60;;;3.70;;
59587;SDS011;45412;54.472;18.464;2022-09-13T08:28:38;9.20;;;3.70;;
59587;SDS011;45412;54.472;18.464;2022-09-13T08:31:27;9.80;;;3.80;;
59587;SDS011;45412;54.472;18.464;2022-09-13T08:34:16;8.60;;;3.40;;
59587;SDS011;45412;54.472;18.464;2022-09-13T08:37:04;11.00;;;4.10;;
59587;SDS011;45412;54.472;18.464;2022-09-13T08:39:52;10.10;;;4.50;;
59587;SDS011;45412;54.472;18.464;2022-09-13T08:42:48;9.00;;;4.50;;
59587;SDS011;45412;54.472;18.464;2022-09-13T08:45:50;8.70;;;4.00;;
59587;SDS011;45412;54.472;18.464;2022-09-13T08:48:49;9.10;;;4.30;;
59587;SDS011;45412;54.472;18.464;2022-09-13T08:51:41;10.40;;;4.20;;
59587;SDS011;45412;54.472;18.464;2022-09-13T08:54:34;13.30;;;5.80;;
59587;SDS011;45412;54.472;18.464;2022-09-13T08:57:58;10.10;;;4.60;;
59587;SDS011;45412;54.472;18.464;2022-09-13T09:01:01;9.90;;;4.30;;
59587;SDS011;45412;54.472;18.464;2022-09-13T09:07:05;10.20;;;4.80;;
59587;SDS011;45412;54.472;18.464;2022-09-13T09:10:24;10.10;;;4.50;;
59587;SDS011;45412;54.472;18.464;2022-09-13T09:13:51;12.70;;;4.70;;
59587;SDS011;45412;54.472;18.464;2022-09-13T09:16:50;10.40;;;5.10;;
59587;SDS011;45412;54.472;18.464;2022-09-13T09:19:44;10.30;;;4.80;;
59587;SDS011;45412;54.472;18.464;2022-09-13T09:22:34;11.30;;;5.00;;
59587;SDS011;45412;54.472;18.464;2022-09-13T09:25:23;9.30;;;4.60;;
59587;SDS011;45412;54.472;18.464;2022-09-13T09:28:17;12.80;;;5.50;;
59587;SDS011;45412;54.472;18.464;2022-09-13T09:31:18;11.80;;;5.90;;
59587;SDS011;45412;54.472;18.464;2022-09-13T09:37:25;14.50;;;4.50;;
59587;SDS011;45412;54.472;18.464;2022-09-13T09:40:15;12.30;;;5.40;;
59587;SDS011;45412;54.472;18.464;2022-09-13T09:43:27;12.90;;;6.00;;
59587;SDS011;45412;54.472;18.464;2022-09-13T09:46:25;10.80;;;5.00;;
59587;SDS011;45412;54.472;18.464;2022-09-13T09:49:33;9.20;;;4.80;;
59587;SDS011;45412;54.472;18.464;2022-09-13T09:56:05;11.10;;;5.30;;
59587;SDS011;45412;54.472;18.464;2022-09-13T09:59:02;8.60;;;4.60;;
59587;SDS011;45412;54.472;18.464;2022-09-13T10:01:50;11.40;;;5.00;;
59587;SDS011;45412;54.472;18.464;2022-09-13T10:04:38;11.30;;;4.90;;
59587;SDS011;45412;54.472;18.464;2022-09-13T10:10:25;10.20;;;5.30;;
59587;SDS011;45412;54.472;18.464;2022-09-13T10:13:19;10.50;;;6.00;;
59587;SDS011;45412;54.472;18.464;2022-09-13T10:16:25;10.50;;;5.60;;
59587;SDS011;45412;54.472;18.464;2022-09-13T10:19:23;10.00;;;5.70;;
59587;SDS011;45412;54.472;18.464;2022-09-13T10:22:12;11.40;;;6.10;;
59587;SDS011;45412;54.472;18.464;2022-09-13T10:25:33;10.00;;;6.20;;
59587;SDS011;45412;54.472;18.464;2022-09-13T10:28:23;9.50;;;5.20;;
59587;SDS011;45412;54.472;18.464;2022-09-13T10:31:15;10.30;;;5.90;;
59587;SDS011;45412;54.472;18.464;2022-09-13T10:34:26;10.60;;;5.80;;
59587;SDS011;45412;54.472;18.464;2022-09-13T10:37:24;12.30;;;6.20;;
59587;SDS011;45412;54.472;18.464;2022-09-13T10:40:18;13.20;;;6.30;;
59587;SDS011;45412;54.472;18.464;2022-09-13T10:43:14;12.90;;;6.50;;
59587;SDS011;45412;54.472;18.464;2022-09-13T10:46:12;9.60;;;5.10;;
59587;SDS011;45412;54.472;18.464;2022-09-13T10:52:58;9.90;;;5.80;;
59587;SDS011;45412;54.472;18.464;2022-09-13T10:55:52;11.00;;;6.00;;
59587;SDS011;45412;54.472;18.464;2022-09-13T10:58:41;10.50;;;5.30;;
59587;SDS011;45412;54.472;18.464;2022-09-13T11:01:43;10.40;;;5.70;;
59587;SDS011;45412;54.472;18.464;2022-09-13T11:05:25;12.00;;;6.00;;
59587;SDS011;45412;54.472;18.464;2022-09-13T11:11:58;11.10;;;6.10;;
59587;SDS011;45412;54.472;18.464;2022-09-13T11:35:33;8.90;;;4.90;;
59587;SDS011;45412;54.472;18.464;2022-09-13T11:42:05;8.50;;;4.20;;
59587;SDS011;45412;54.472;18.464;2022-09-13T11:45:14;10.50;;;5.20;;
59587;SDS011;45412;54.472;18.464;2022-09-13T11:55:25;8.70;;;4.90;;
59587;SDS011;45412;54.472;18.464;2022-09-13T11:58:29;8.90;;;4.80;;
59587;SDS011;45412;54.472;18.464;2022-09-13T12:01:40;8.60;;;4.40;;
59587;SDS011;45412;54.472;18.464;2022-09-13T12:04:58;10.10;;;4.90;;
59587;SDS011;45412;54.472;18.464;2022-09-13T12:08:24;9.10;;;5.50;;
59587;SDS011;45412;54.472;18.464;2022-09-13T12:11:38;12.60;;;5.20;;
59587;SDS011;45412;54.472;18.464;2022-09-13T12:14:44;10.30;;;5.20;;
59587;SDS011;45412;54.472;18.464;2022-09-13T12:17:42;10.00;;;4.90;;
59587;SDS011;45412;54.472;18.464;2022-09-13T12:24:01;10.60;;;5.60;;
59587;SDS011;45412;54.472;18.464;2022-09-13T12:27:47;10.30;;;4.90;;
59587;SDS011;45412;54.472;18.464;2022-09-13T12:30:40;10.20;;;4.90;;
59587;SDS011;45412;54.472;18.464;2022-09-13T12:33:32;8.60;;;4.70;;
59587;SDS011;45412;54.472;18.464;2022-09-13T12:55:52;9.90;;;5.80;;
59587;SDS011;45412;54.472;18.464;2022-09-13T13:02:40;10.70;;;5.50;;
59587;SDS011;45412;54.472;18.464;2022-09-13T13:05:33;11.20;;;6.30;;
59587;SDS011;45412;54.472;18.464;2022-09-13T13:08:27;9.30;;;5.40;;
59587;SDS011;45412;54.472;18.464;2022-09-13T13:11:16;9.50;;;6.00;;
59587;SDS011;45412;54.472;18.464;2022-09-13T13:14:29;12.20;;;5.90;;
59587;SDS011;45412;54.472;18.464;2022-09-13T13:17:42;10.90;;;6.30;;
59587;SDS011;45412;54.472;18.464;2022-09-13T13:23:43;10.40;;;5.90;;
59587;SDS011;45412;54.472;18.464;2022-09-13T13:29:30;9.60;;;5.50;;
59587;SDS011;45412;54.472;18.464;2022-09-13T13:32:19;10.50;;;5.90;;
59587;SDS011;45412;54.472;18.464;2022-09-13T13:35:27;9.90;;;5.30;;
59587;SDS011;45412;54.472;18.464;2022-09-13T13:38:36;8.90;;;5.40;;
59587;SDS011;45412;54.472;18.464;2022-09-13T13:50:17;9.40;;;5.30;;
59587;SDS011;45412;54.472;18.464;2022-09-13T13:53:22;10.90;;;5.40;;
59587;SDS011;45412;54.472;18.464;2022-09-13T13:56:24;10.30;;;5.40;;
59587;SDS011;45412;54.472;18.464;2022-09-13T13:59:35;8.40;;;4.30;;
59587;SDS011;45412;54.472;18.464;2022-09-13T14:06:11;9.10;;;4.70;;
59587;SDS011;45412;54.472;18.464;2022-09-13T14:21:21;9.40;;;5.40;;
59587;SDS011;45412;54.472;18.464;2022-09-13T14:33:06;12.70;;;5.90;;
59587;SDS011;45412;54.472;18.464;2022-09-13T14:36:18;10.70;;;5.90;;
59587;SDS011;45412;54.472;18.464;2022-09-13T14:39:08;10.70;;;5.70;;
59587;SDS011;45412;54.472;18.464;2022-09-13T14:42:02;10.90;;;6.00;;
59587;SDS011;45412;54.472;18.464;2022-09-13T14:45:00;12.30;;;6.20;;
59587;SDS011;45412;54.472;18.464;2022-09-13T14:48:08;9.90;;;5.60;;
59587;SDS011;45412;54.472;18.464;2022-09-13T14:54:39;10.70;;;5.90;;
59587;SDS011;45412;54.472;18.464;2022-09-13T14:57:38;10.50;;;5.90;;
59587;SDS011;45412;54.472;18.464;2022-09-13T15:00:35;10.90;;;6.40;;
59587;SDS011;45412;54.472;18.464;2022-09-13T15:03:34;10.50;;;6.30;;
59587;SDS011;45412;54.472;18.464;2022-09-13T15:06:36;11.20;;;6.70;;
59587;SDS011;45412;54.472;18.464;2022-09-13T15:09:27;11.90;;;6.10;;
59587;SDS011;45412;54.472;18.464;2022-09-13T15:12:24;11.00;;;6.20;;
59587;SDS011;45412;54.472;18.464;2022-09-13T15:18:44;11.90;;;7.30;;
59587;SDS011;45412;54.472;18.464;2022-09-13T15:21:42;12.40;;;7.70;;
59587;SDS011;45412;54.472;18.464;2022-09-13T15:24:36;11.60;;;7.60;;
59587;SDS011;45412;54.472;18.464;2022-09-13T15:27:42;12.80;;;8.00;;
59587;SDS011;45412;54.472;18.464;2022-09-13T15:30:41;15.40;;;9.70;;
59587;SDS011;45412;54.472;18.464;2022-09-13T15:37:09;17.20;;;9.70;;
59587;SDS011;45412;54.472;18.464;2022-09-13T15:40:18;16.30;;;8.90;;
59587;SDS011;45412;54.472;18.464;2022-09-13T15:43:12;12.50;;;8.50;;
59587;SDS011;45412;54.472;18.464;2022-09-13T15:46:00;13.80;;;9.30;;
59587;SDS011;45412;54.472;18.464;2022-09-13T15:48:51;16.30;;;9.50;;
59587;SDS011;45412;54.472;18.464;2022-09-13T15:51:44;17.90;;;11.20;;
59587;SDS011;45412;54.472;18.464;2022-09-13T15:54:39;17.40;;;11.30;;
59587;SDS011;45412;54.472;18.464;2022-09-13T15:57:30;15.10;;;10.30;;
59587;SDS011;45412;54.472;18.464;2022-09-13T16:00:23;16.50;;;9.80;;
59587;SDS011;45412;54.472;18.464;2022-09-13T16:03:14;15.20;;;10.20;;
59587;SDS011;45412;54.472;18.464;2022-09-13T16:06:02;17.60;;;9.80;;
59587;SDS011;45412;54.472;18.464;2022-09-13T16:08:50;17.10;;;11.10;;
59587;SDS011;45412;54.472;18.464;2022-09-13T16:11:38;15.30;;;8.90;;
59587;SDS011;45412;54.472;18.464;2022-09-13T16:14:26;16.30;;;10.40;;
59587;SDS011;45412;54.472;18.464;2022-09-13T16:17:24;15.60;;;10.10;;
59587;SDS011;45412;54.472;18.464;2022-09-13T16:20:15;17.90;;;10.40;;
59587;SDS011;45412;54.472;18.464;2022-09-13T16:23:06;17.80;;;10.90;;
59587;SDS011;45412;54.472;18.464;2022-09-13T16:25:57;15.70;;;10.50;;
59587;SDS011;45412;54.472;18.464;2022-09-13T16:28:50;15.60;;;9.50;;
59587;SDS011;45412;54.472;18.464;2022-09-13T16:31:39;14.90;;;9.70;;
59587;SDS011;45412;54.472;18.464;2022-09-13T16:34:27;13.00;;;7.30;;
59587;SDS011;45412;54.472;18.464;2022-09-13T16:37:17;12.80;;;7.80;;
59587;SDS011;45412;54.472;18.464;2022-09-13T16:40:10;13.60;;;8.60;;
59587;SDS011;45412;54.472;18.464;2022-09-13T16:42:58;13.50;;;8.00;;
59587;SDS011;45412;54.472;18.464;2022-09-13T16:45:46;13.20;;;7.30;;
59587;SDS011;45412;54.472;18.464;2022-09-13T16:48:36;13.00;;;6.60;;
59587;SDS011;45412;54.472;18.464;2022-09-13T16:51:24;12.20;;;6.70;;
59587;SDS011;45412;54.472;18.464;2022-09-13T16:54:13;10.50;;;5.80;;
59587;SDS011;45412;54.472;18.464;2022-09-13T16:57:04;14.10;;;7.00;;
59587;SDS011;45412;54.472;18.464;2022-09-13T16:59:53;11.90;;;5.90;;
59587;SDS011;45412;54.472;18.464;2022-09-13T17:02:45;11.80;;;6.00;;
59587;SDS011;45412;54.472;18.464;2022-09-13T17:05:33;9.80;;;4.40;;
59587;SDS011;45412;54.472;18.464;2022-09-13T17:08:21;11.60;;;6.30;;
59587;SDS011;45412;54.472;18.464;2022-09-13T17:11:11;12.00;;;5.60;;
59587;SDS011;45412;54.472;18.464;2022-09-13T17:14:03;12.70;;;6.50;;
59587;SDS011;45412;54.472;18.464;2022-09-13T17:16:55;12.40;;;6.40;;
59587;SDS011;45412;54.472;18.464;2022-09-13T17:19:44;12.90;;;6.50;;
59587;SDS011;45412;54.472;18.464;2022-09-13T17:22:33;12.30;;;6.70;;
59587;SDS011;45412;54.472;18.464;2022-09-13T17:25:52;13.20;;;7.30;;
59587;SDS011;45412;54.472;18.464;2022-09-13T17:28:47;12.50;;;6.30;;
59587;SDS011;45412;54.472;18.464;2022-09-13T17:31:48;11.20;;;6.00;;
59587;SDS011;45412;54.472;18.464;2022-09-13T17:34:39;10.60;;;5.70;;
59587;SDS011;45412;54.472;18.464;2022-09-13T17:37:26;13.10;;;7.00;;
59587;SDS011;45412;54.472;18.464;2022-09-13T17:40:14;12.10;;;6.90;;
59587;SDS011;45412;54.472;18.464;2022-09-13T17:43:04;11.50;;;6.10;;
59587;SDS011;45412;54.472;18.464;2022-09-13T17:45:51;12.40;;;6.30;;
59587;SDS011;45412;54.472;18.464;2022-09-13T17:48:40;13.70;;;6.90;;
59587;SDS011;45412;54.472;18.464;2022-09-13T17:51:33;15.10;;;8.00;;
59587;SDS011;45412;54.472;18.464;2022-09-13T17:54:21;14.20;;;7.60;;
59587;SDS011;45412;54.472;18.464;2022-09-13T17:57:09;12.40;;;7.70;;
59587;SDS011;45412;54.472;18.464;2022-09-13T17:59:58;13.30;;;7.00;;
59587;SDS011;45412;54.472;18.464;2022-09-13T18:02:46;14.70;;;7.60;;
59587;SDS011;45412;54.472;18.464;2022-09-13T18:05:34;14.20;;;7.50;;
59587;SDS011;45412;54.472;18.464;2022-09-13T18:08:26;12.20;;;7.10;;
59587;SDS011;45412;54.472;18.464;2022-09-13T18:12:08;14.10;;;7.40;;
59587;SDS011;45412;54.472;18.464;2022-09-13T18:14:58;14.20;;;6.90;;
59587;SDS011;45412;54.472;18.464;2022-09-13T18:17:47;14.10;;;8.10;;
59587;SDS011;45412;54.472;18.464;2022-09-13T18:20:35;13.70;;;7.20;;
59587;SDS011;45412;54.472;18.464;2022-09-13T18:23:27;16.40;;;9.60;;
59587;SDS011;45412;54.472;18.464;2022-09-13T18:26:19;14.50;;;8.10;;
59587;SDS011;45412;54.472;18.464;2022-09-13T18:29:10;13.70;;;7.80;;
59587;SDS011;45412;54.472;18.464;2022-09-13T18:32:13;14.10;;;7.20;;
59587;SDS011;45412;54.472;18.464;2022-09-13T18:35:02;17.10;;;7.50;;
59587;SDS011;45412;54.472;18.464;2022-09-13T18:38:02;14.90;;;7.50;;
59587;SDS011;45412;54.472;18.464;2022-09-13T18:41:11;12.40;;;6.60;;
59587;SDS011;45412;54.472;18.464;2022-09-13T18:44:02;13.90;;;7.90;;
59587;SDS011;45412;54.472;18.464;2022-09-13T18:46:51;14.40;;;7.40;;
59587;SDS011;45412;54.472;18.464;2022-09-13T18:49:40;12.80;;;6.40;;
59587;SDS011;45412;54.472;18.464;2022-09-13T18:52:28;12.40;;;6.50;;
59587;SDS011;45412;54.472;18.464;2022-09-13T18:55:18;12.80;;;6.80;;
59587;SDS011;45412;54.472;18.464;2022-09-13T18:58:06;16.00;;;7.20;;
59587;SDS011;45412;54.472;18.464;2022-09-13T19:01:11;16.00;;;7.20;;
59587;SDS011;45412;54.472;18.464;2022-09-13T19:04:20;14.10;;;7.20;;
59587;SDS011;45412;54.472;18.464;2022-09-13T19:07:08;13.60;;;7.50;;
59587;SDS011;45412;54.472;18.464;2022-09-13T19:09:56;12.90;;;6.90;;
59587;SDS011;45412;54.472;18.464;2022-09-13T19:12:44;15.00;;;8.20;;
59587;SDS011;45412;54.472;18.464;2022-09-13T19:15:32;13.50;;;7.90;;
59587;SDS011;45412;54.472;18.464;2022-09-13T19:18:20;14.90;;;8.30;;
59587;SDS011;45412;54.472;18.464;2022-09-13T19:21:19;14.20;;;7.20;;
59587;SDS011;45412;54.472;18.464;2022-09-13T19:24:09;15.40;;;7.70;;
59587;SDS011;45412;54.472;18.464;2022-09-13T19:27:07;12.20;;;5.90;;
59587;SDS011;45412;54.472;18.464;2022-09-13T19:29:56;14.30;;;6.60;;
59587;SDS011;45412;54.472;18.464;2022-09-13T19:32:45;13.30;;;5.30;;
59587;SDS011;45412;54.472;18.464;2022-09-13T19:35:34;12.20;;;5.40;;
59587;SDS011;45412;54.472;18.464;2022-09-13T19:38:40;12.50;;;6.00;;
59587;SDS011;45412;54.472;18.464;2022-09-13T19:41:49;10.80;;;5.80;;
59587;SDS011;45412;54.472;18.464;2022-09-13T19:44:40;14.10;;;5.70;;
59587;SDS011;45412;54.472;18.464;2022-09-13T19:47:28;12.40;;;5.60;;
59587;SDS011;45412;54.472;18.464;2022-09-13T19:50:36;12.80;;;5.50;;
59587;SDS011;45412;54.472;18.464;2022-09-13T19:53:24;13.60;;;5.30;;
59587;SDS011;45412;54.472;18.464;2022-09-13T19:56:36;10.80;;;5.30;;
59587;SDS011;45412;54.472;18.464;2022-09-13T19:59:25;12.70;;;5.50;;
59587;SDS011;45412;54.472;18.464;2022-09-13T20:02:13;13.00;;;5.50;;
59587;SDS011;45412;54.472;18.464;2022-09-13T20:05:01;12.30;;;4.60;;
59587;SDS011;45412;54.472;18.464;2022-09-13T20:07:50;11.70;;;4.80;;